createdAt,value
2018-06-22T00:02:03.357Z,12.90
2018-06-22T00:04:31.649Z,12.70
2018-06-22T00:06:59.961Z,12.70
2018-06-22T00:09:34.598Z,12.80
2018-06-22T00:12:02.886Z,12.60
2018-06-22T00:14:31.166Z,12.70
2018-06-22T00:16:59.432Z,12.90
2018-06-22T00:19:27.740Z,13.00
2018-06-22T00:21:55.980Z,13.00
2018-06-22T00:24:24.186Z,13.00
2018-06-22T00:26:52.474Z,12.90
2018-06-22T00:29:20.795Z,12.90
2018-06-22T00:31:49.001Z,12.90
2018-06-22T00:34:17.264Z,12.90
2018-06-22T00:36:45.499Z,13.00
2018-06-22T00:39:13.719Z,13.10
2018-06-22T00:41:42.036Z,13.10
2018-06-22T00:44:10.278Z,12.80
2018-06-22T00:46:38.565Z,12.80
2018-06-22T00:49:06.827Z,12.60
2018-06-22T00:51:35.117Z,12.70
2018-06-22T00:54:10.077Z,12.70
2018-06-22T00:56:38.317Z,12.90
2018-06-22T00:59:06.564Z,13.10
2018-06-22T01:01:34.815Z,13.10
2018-06-22T01:04:03.105Z,13.20
2018-06-22T01:06:31.363Z,13.20
2018-06-22T01:08:59.608Z,13.20
2018-06-22T01:11:27.839Z,13.10
2018-06-22T01:13:56.148Z,13.20
2018-06-22T01:16:24.401Z,13.20
2018-06-22T01:18:52.700Z,13.10
2018-06-22T01:21:20.991Z,13.20
2018-06-22T01:23:49.238Z,13.10
2018-06-22T01:26:17.492Z,13.00
2018-06-22T01:28:45.759Z,12.90
2018-06-22T01:31:14.086Z,12.80
2018-06-22T01:33:42.390Z,12.70
2018-06-22T01:36:10.731Z,13.00
2018-06-22T01:38:39.027Z,13.00
2018-06-22T01:41:07.321Z,13.10
2018-06-22T01:43:35.580Z,13.10
2018-06-22T01:46:03.872Z,13.00
2018-06-22T01:48:32.211Z,13.20
2018-06-22T01:51:00.483Z,13.20
2018-06-22T01:53:28.796Z,13.20
2018-06-22T01:55:57.104Z,13.30
2018-06-22T01:58:25.379Z,13.30
2018-06-22T02:00:53.663Z,13.30
2018-06-22T02:03:21.935Z,13.30
2018-06-22T02:05:50.717Z,13.30
2018-06-22T02:08:18.990Z,13.10
2018-06-22T02:10:47.268Z,13.10
2018-06-22T02:13:15.547Z,13.10
2018-06-22T02:15:43.879Z,12.80
2018-06-22T02:18:12.101Z,12.70
2018-06-22T02:23:08.370Z,12.70
2018-06-22T02:25:36.628Z,12.80
2018-06-22T02:28:05.152Z,12.80
2018-06-22T02:30:33.435Z,12.80
2018-06-22T02:33:01.698Z,12.50
2018-06-22T02:35:29.957Z,12.60
2018-06-22T02:37:58.241Z,12.50
2018-06-22T02:40:26.475Z,12.60
2018-06-22T02:42:54.824Z,12.80
2018-06-22T02:45:23.105Z,13.00
2018-06-22T02:47:51.344Z,12.80
2018-06-22T02:50:20.300Z,12.70
2018-06-22T02:52:48.574Z,12.70
2018-06-22T02:57:44.864Z,13.00
2018-06-22T03:00:13.160Z,12.90
2018-06-22T03:02:41.380Z,12.90
2018-06-22T03:05:09.638Z,12.80
2018-06-22T03:07:37.936Z,12.70
2018-06-22T03:10:06.644Z,12.70
2018-06-22T03:12:34.998Z,12.70
2018-06-22T03:15:03.697Z,12.70
2018-06-22T03:17:31.985Z,12.70
2018-06-22T03:20:00.575Z,12.60
2018-06-22T03:22:28.875Z,12.50
2018-06-22T03:24:57.352Z,12.40
2018-06-22T03:27:25.599Z,12.40
2018-06-22T03:29:53.983Z,12.40
2018-06-22T03:32:22.232Z,12.50
2018-06-22T03:34:50.574Z,12.50
2018-06-22T03:37:18.828Z,12.40
2018-06-22T03:39:47.098Z,12.40
2018-06-22T03:42:15.403Z,12.20
2018-06-22T03:44:43.669Z,12.20
2018-06-22T03:47:11.946Z,12.20
2018-06-22T03:49:40.231Z,12.50
2018-06-22T03:52:08.569Z,12.50
2018-06-22T03:54:36.800Z,12.50
2018-06-22T03:57:05.084Z,12.40
2018-06-22T03:59:33.376Z,12.40
2018-06-22T04:02:02.649Z,12.40
2018-06-22T04:04:30.936Z,12.50
2018-06-22T04:06:59.289Z,12.50
2018-06-22T04:09:28.264Z,12.50
2018-06-22T04:11:56.563Z,12.50
2018-06-22T04:14:24.888Z,12.50
2018-06-22T04:16:53.186Z,12.40
2018-06-22T04:19:21.446Z,12.40
2018-06-22T04:21:49.709Z,12.40
2018-06-22T04:24:18.617Z,12.30
2018-06-22T04:26:47.609Z,12.30
2018-06-22T04:29:17.737Z,12.40
2018-06-22T04:31:47.021Z,12.40
2018-06-22T04:34:15.899Z,12.30
2018-06-22T04:36:44.157Z,12.30
2018-06-22T04:39:13.209Z,12.20
2018-06-22T04:41:41.618Z,12.20
2018-06-22T04:44:09.971Z,12.20
2018-06-22T04:46:38.993Z,12.40
2018-06-22T04:49:07.231Z,12.50
2018-06-22T04:51:35.528Z,12.50
2018-06-22T04:54:03.821Z,12.60
2018-06-22T04:56:32.419Z,12.60
2018-06-22T04:59:00.726Z,12.60
2018-06-22T05:01:29.508Z,12.70
2018-06-22T05:03:57.788Z,12.70
2018-06-22T05:06:26.163Z,12.80
2018-06-22T05:08:54.430Z,12.80
2018-06-22T05:11:22.728Z,12.90
2018-06-22T05:13:51.004Z,12.90
2018-06-22T05:16:19.368Z,13.10
2018-06-22T05:18:48.071Z,13.10
2018-06-22T05:21:16.344Z,13.00
2018-06-22T05:23:44.626Z,13.20
2018-06-22T05:26:12.897Z,13.10
2018-06-22T05:28:41.161Z,13.10
2018-06-22T05:31:09.440Z,13.20
2018-06-22T05:33:37.799Z,13.40
2018-06-22T05:36:06.202Z,13.40
2018-06-22T05:38:34.679Z,13.30
2018-06-22T05:41:03.059Z,13.40
2018-06-22T05:43:31.697Z,13.30
2018-06-22T05:46:00.090Z,13.30
2018-06-22T05:48:28.408Z,13.40
2018-06-22T05:50:56.762Z,13.30
2018-06-22T05:53:25.141Z,13.40
2018-06-22T05:55:53.487Z,13.30
2018-06-22T05:58:21.795Z,13.20
2018-06-22T06:00:50.203Z,13.50
2018-06-22T06:03:18.527Z,13.30
2018-06-22T06:05:47.503Z,13.40
2018-06-22T06:08:15.945Z,13.30
2018-06-22T06:10:44.214Z,13.50
2018-06-22T06:13:12.542Z,13.50
2018-06-22T06:15:40.843Z,13.70
2018-06-22T06:18:09.132Z,13.60
2018-06-22T06:20:43.934Z,13.70
2018-06-22T06:23:12.147Z,13.70
2018-06-22T06:25:40.482Z,13.80
2018-06-22T06:28:08.787Z,13.70
2018-06-22T06:30:37.091Z,13.80
2018-06-22T06:33:05.546Z,13.70
2018-06-22T06:35:33.884Z,13.70
2018-06-22T06:38:02.204Z,13.60
2018-06-22T06:40:30.492Z,13.80
2018-06-22T06:42:58.804Z,14.10
2018-06-22T06:45:27.102Z,14.20
2018-06-22T06:50:23.338Z,13.90
2018-06-22T06:52:51.655Z,13.90
2018-06-22T06:55:19.867Z,13.90
2018-06-22T06:57:48.190Z,13.80
2018-06-22T07:00:17.005Z,14.00
2018-06-22T07:02:45.293Z,14.20
2018-06-22T07:05:13.565Z,14.40
2018-06-22T07:07:41.826Z,14.90
2018-06-22T07:10:10.137Z,15.00
2018-06-22T07:12:38.460Z,15.10
2018-06-22T07:15:06.762Z,15.30
2018-06-22T07:17:35.131Z,15.20
2018-06-22T07:20:03.520Z,15.20
2018-06-22T07:22:31.820Z,15.30
2018-06-22T07:25:00.104Z,15.00
2018-06-22T07:27:28.353Z,14.90
2018-06-22T07:29:56.652Z,14.70
2018-06-22T07:32:24.915Z,14.70
2018-06-22T07:34:53.226Z,14.60
2018-06-22T07:37:27.914Z,14.70
2018-06-22T07:39:56.212Z,14.90
2018-06-22T07:42:24.483Z,14.70
2018-06-22T07:44:52.735Z,15.00
2018-06-22T07:47:21.017Z,15.00
2018-06-22T07:49:49.369Z,15.00
2018-06-22T07:52:17.651Z,15.20
2018-06-22T07:54:45.925Z,15.60
2018-06-22T07:57:14.247Z,15.50
2018-06-22T07:59:42.575Z,15.30
2018-06-22T08:02:11.491Z,15.50
2018-06-22T08:04:39.801Z,15.50
2018-06-22T08:07:08.090Z,15.30
2018-06-22T08:09:36.369Z,15.30
2018-06-22T08:12:04.670Z,15.30
2018-06-22T08:14:32.991Z,15.10
2018-06-22T08:17:01.261Z,15.00
2018-06-22T08:19:29.704Z,14.90
2018-06-22T08:24:26.168Z,15.00
2018-06-22T08:26:54.438Z,15.00
2018-06-22T08:29:22.744Z,15.00
2018-06-22T08:31:51.064Z,15.10
2018-06-22T08:34:19.354Z,15.10
2018-06-22T08:36:47.675Z,14.90
2018-06-22T08:39:15.994Z,14.80
2018-06-22T08:41:44.421Z,14.70
2018-06-22T08:44:12.575Z,14.70
2018-06-22T08:46:40.928Z,14.80
2018-06-22T08:51:37.235Z,14.90
2018-06-22T08:54:05.592Z,14.90
2018-06-22T08:56:33.848Z,14.80
2018-06-22T08:59:02.128Z,14.90
2018-06-22T09:01:30.430Z,15.10
2018-06-22T09:03:58.696Z,15.00
2018-06-22T09:06:27.000Z,15.10
2018-06-22T09:08:55.279Z,15.10
2018-06-22T09:11:23.562Z,15.10
2018-06-22T09:13:51.889Z,15.20
2018-06-22T09:16:20.201Z,15.10
2018-06-22T09:18:48.519Z,15.10
2018-06-22T09:21:16.825Z,15.20
2018-06-22T09:23:45.149Z,14.90
2018-06-22T09:26:13.434Z,14.90
2018-06-22T09:28:41.767Z,14.80
2018-06-22T09:31:10.040Z,14.70
2018-06-22T09:33:38.351Z,14.80
2018-06-22T09:36:06.591Z,14.80
2018-06-22T09:38:35.008Z,14.90
2018-06-22T09:41:03.311Z,15.00
2018-06-22T09:43:31.679Z,15.00
2018-06-22T09:46:00.076Z,15.10
2018-06-22T09:50:56.348Z,15.10
2018-06-22T09:53:24.640Z,15.00
2018-06-22T09:55:52.936Z,15.20
2018-06-22T09:58:21.289Z,15.30
2018-06-22T10:00:50.602Z,16.20
2018-06-22T10:03:20.186Z,16.50
2018-06-22T10:05:48.480Z,16.50
2018-06-22T10:08:16.791Z,16.60
2018-06-22T10:10:45.193Z,16.40
2018-06-22T10:13:13.906Z,16.20
2018-06-22T10:15:46.468Z,16.10
2018-06-22T10:18:14.812Z,16.30
2018-06-22T10:20:43.164Z,16.10
2018-06-22T10:23:11.434Z,16.00
2018-06-22T10:25:39.853Z,15.70
2018-06-22T10:28:08.167Z,15.70
2018-06-22T10:30:36.408Z,15.70
2018-06-22T10:33:04.742Z,15.70
2018-06-22T10:35:33.099Z,15.40
2018-06-22T10:38:01.369Z,15.60
2018-06-22T10:40:29.722Z,15.40
2018-06-22T10:45:26.052Z,15.30
2018-06-22T10:47:54.342Z,15.20
2018-06-22T10:52:50.610Z,15.50
2018-06-22T10:55:18.887Z,15.70
2018-06-22T10:57:47.228Z,15.50
2018-06-22T11:00:15.551Z,15.60
2018-06-22T11:02:43.824Z,15.70
2018-06-22T11:05:12.106Z,15.70
2018-06-22T11:07:40.397Z,15.70
2018-06-22T11:10:08.729Z,15.80
2018-06-22T11:12:37.020Z,16.10
2018-06-22T11:15:05.541Z,16.10
2018-06-22T11:17:33.843Z,15.90
2018-06-22T11:20:02.167Z,16.40
2018-06-22T11:22:30.502Z,17.70
2018-06-22T11:24:58.807Z,17.60
2018-06-22T11:27:27.133Z,17.50
2018-06-22T11:29:55.640Z,18.40
2018-06-22T11:32:24.088Z,18.80
2018-06-22T11:34:52.735Z,18.90
2018-06-22T11:37:21.267Z,18.30
2018-06-22T11:39:49.929Z,18.40
2018-06-22T11:42:18.507Z,19.00
2018-06-22T11:44:47.204Z,18.60
2018-06-22T11:47:15.648Z,18.10
2018-06-22T11:49:44.122Z,18.10
2018-06-22T11:52:12.710Z,17.90
2018-06-22T11:54:41.096Z,17.50
2018-06-22T11:57:09.439Z,17.50
2018-06-22T12:02:05.822Z,17.50
2018-06-22T12:04:34.092Z,17.30
2018-06-22T12:07:02.437Z,17.50
2018-06-22T12:09:30.866Z,17.70
2018-06-22T12:11:59.231Z,17.60
2018-06-22T12:14:27.500Z,17.30
2018-06-22T12:16:55.821Z,17.10
2018-06-22T12:19:24.172Z,16.70
2018-06-22T12:24:20.820Z,15.80
2018-06-22T12:26:49.111Z,15.50
2018-06-22T12:29:17.567Z,15.50
2018-06-22T12:31:45.857Z,15.70
2018-06-22T12:34:14.211Z,16.00
2018-06-22T12:36:42.507Z,16.80
2018-06-22T12:39:12.723Z,18.00
2018-06-22T12:41:41.826Z,18.60
2018-06-22T12:44:10.168Z,19.40
2018-06-22T12:46:38.531Z,20.80
2018-06-22T12:49:06.889Z,20.00
2018-06-22T12:51:35.352Z,19.20
2018-06-22T12:54:03.826Z,18.60
2018-06-22T12:56:32.257Z,17.90
2018-06-22T12:59:00.738Z,17.40
2018-06-22T13:03:57.492Z,17.40
2018-06-22T13:06:25.924Z,17.60
2018-06-22T13:08:55.224Z,18.00
2018-06-22T13:11:23.516Z,18.20
2018-06-22T13:13:51.821Z,18.30
2018-06-22T13:16:20.084Z,18.60
2018-06-22T13:18:48.623Z,18.80
2018-06-22T13:21:16.961Z,18.60
2018-06-22T13:23:45.386Z,17.90
2018-06-22T13:26:13.681Z,17.40
2018-06-22T13:28:41.976Z,17.00
2018-06-22T13:31:10.686Z,17.10
2018-06-22T13:33:39.257Z,16.90
2018-06-22T13:36:07.969Z,16.80
2018-06-22T13:38:36.640Z,16.60
2018-06-22T13:43:33.739Z,16.50
2018-06-22T13:46:02.267Z,16.60
2018-06-22T13:48:30.871Z,16.70
2018-06-22T13:53:27.925Z,16.70
2018-06-22T13:55:56.448Z,17.00
2018-06-22T13:58:24.996Z,17.30
2018-06-22T14:00:53.610Z,17.60
2018-06-22T14:03:21.974Z,18.00
2018-06-22T14:08:24.263Z,19.20
2018-06-22T14:10:52.717Z,19.40
2018-06-22T14:13:21.335Z,19.40
2018-06-22T14:15:49.594Z,18.80
2018-06-22T14:20:45.980Z,17.90
2018-06-22T14:23:14.335Z,17.50
2018-06-22T14:25:42.607Z,17.70
2018-06-22T14:30:38.902Z,18.30
2018-06-22T14:33:07.223Z,18.30
2018-06-22T14:35:35.531Z,18.50
2018-06-22T14:38:03.844Z,19.00
2018-06-22T14:40:32.120Z,19.50
2018-06-22T14:43:00.405Z,19.60
2018-06-22T14:45:28.685Z,19.30
2018-06-22T14:47:56.974Z,19.50
2018-06-22T14:50:25.228Z,19.40
2018-06-22T14:52:53.489Z,19.50
2018-06-22T14:55:27.182Z,19.60
2018-06-22T14:58:00.800Z,19.60
2018-06-22T15:00:34.494Z,19.70
2018-06-22T15:03:08.200Z,19.10
2018-06-22T15:05:41.952Z,19.30
2018-06-22T15:10:40.984Z,18.40
2018-06-22T15:13:09.239Z,18.40
2018-06-22T15:18:05.651Z,19.30
2018-06-22T15:20:33.961Z,19.50
2018-06-22T15:23:02.261Z,19.60
2018-06-22T15:25:30.490Z,19.50
2018-06-22T15:27:58.776Z,19.60
2018-06-22T15:30:27.031Z,19.70
2018-06-22T15:32:55.358Z,19.50
2018-06-22T15:35:28.824Z,19.40
2018-06-22T15:38:02.409Z,19.60
2018-06-22T15:40:36.062Z,19.60
2018-06-22T15:43:09.798Z,19.60
2018-06-22T15:45:43.317Z,19.80
2018-06-22T15:48:16.846Z,19.80
2018-06-22T15:53:23.916Z,19.80
2018-06-22T15:55:56.491Z,19.80
2018-06-22T15:58:24.751Z,19.90
2018-06-22T16:00:53.124Z,19.80
2018-06-22T16:03:26.921Z,19.80
2018-06-22T16:05:55.139Z,19.30
2018-06-22T16:08:23.407Z,19.10
2018-06-22T16:10:51.673Z,19.20
2018-06-22T16:13:21.218Z,19.50
2018-06-22T16:15:54.935Z,19.30
2018-06-22T16:18:28.494Z,19.30
2018-06-22T16:21:02.130Z,18.90
2018-06-22T16:24:35.486Z,18.80
2018-06-22T16:27:08.673Z,19.10
2018-06-22T16:29:36.974Z,19.10
2018-06-22T16:32:05.279Z,19.30
2018-06-22T16:34:33.572Z,19.10
2018-06-22T16:37:01.845Z,18.90
2018-06-22T16:39:30.129Z,18.80
2018-06-22T16:41:58.396Z,18.80
2018-06-22T16:44:26.680Z,18.50
2018-06-22T16:46:54.981Z,18.30
2018-06-22T16:49:23.750Z,18.30
2018-06-22T16:51:52.000Z,18.50
2018-06-22T16:54:20.292Z,18.60
2018-06-22T16:56:48.599Z,18.70
2018-06-22T16:59:16.893Z,18.50
2018-06-22T17:01:45.168Z,18.40
2018-06-22T17:04:15.956Z,18.20
2018-06-22T17:06:49.908Z,18.20
2018-06-22T17:09:23.600Z,18.20
2018-06-22T17:13:00.969Z,18.00
2018-06-22T17:15:34.499Z,17.90
2018-06-22T17:18:08.160Z,17.70
2018-06-22T17:20:36.474Z,17.70
2018-06-22T17:23:04.809Z,17.90
2018-06-22T17:25:33.091Z,17.80
2018-06-22T17:28:01.328Z,17.80
2018-06-22T17:30:29.869Z,17.90
2018-06-22T17:32:58.135Z,17.90
2018-06-22T17:35:26.407Z,18.20
2018-06-22T17:37:54.639Z,18.30
2018-06-22T17:42:50.918Z,18.00
2018-06-22T17:45:19.249Z,18.00
2018-06-22T17:47:47.551Z,17.80
2018-06-22T17:50:21.097Z,17.80
2018-06-22T17:52:49.428Z,17.80
2018-06-22T17:55:17.731Z,18.00
2018-06-22T17:57:45.996Z,17.80
2018-06-22T18:00:20.270Z,17.70
2018-06-22T18:02:53.854Z,17.80
2018-06-22T18:05:27.582Z,18.10
2018-06-22T18:07:55.865Z,18.30
2018-06-22T18:10:29.570Z,18.20
2018-06-22T18:12:59.223Z,18.00
2018-06-22T18:15:27.470Z,17.70
2018-06-22T18:17:55.765Z,17.40
2018-06-22T18:20:24.106Z,17.30
2018-06-22T18:22:52.417Z,17.30
2018-06-22T18:25:20.652Z,17.40
2018-06-22T18:27:48.899Z,17.30
2018-06-22T18:30:17.449Z,17.30
2018-06-22T18:32:45.732Z,17.20
2018-06-22T18:35:15.262Z,17.00
2018-06-22T18:37:43.568Z,16.90
2018-06-22T18:40:12.334Z,16.90
2018-06-22T18:42:40.678Z,16.90
2018-06-22T18:45:10.396Z,16.80
2018-06-22T18:47:38.725Z,16.60
2018-06-22T18:50:07.129Z,16.50
2018-06-22T18:55:14.217Z,16.40
2018-06-22T18:57:47.863Z,16.40
2018-06-22T19:00:21.567Z,16.30
2018-06-22T19:02:55.259Z,16.20
2018-06-22T19:05:23.612Z,16.10
2018-06-22T19:07:51.876Z,16.20
2018-06-22T19:12:48.120Z,16.20
2018-06-22T19:15:16.380Z,16.30
2018-06-22T19:17:44.644Z,16.30
2018-06-22T19:20:12.926Z,16.10
2018-06-22T19:22:41.199Z,16.20
2018-06-22T19:25:09.525Z,16.10
2018-06-22T19:27:38.098Z,16.00
2018-06-22T19:30:06.706Z,15.80
2018-06-22T19:32:34.988Z,15.80
2018-06-22T19:35:08.613Z,15.80
2018-06-22T19:37:36.911Z,15.80
2018-06-22T19:40:05.197Z,15.60
2018-06-22T19:45:06.757Z,15.60
2018-06-22T19:47:40.434Z,15.70
2018-06-22T19:50:14.090Z,15.60
2018-06-22T19:52:47.931Z,15.40
2018-06-22T19:55:16.210Z,15.40
2018-06-22T19:57:44.469Z,15.30
2018-06-22T20:00:12.724Z,15.30
2018-06-22T20:02:40.978Z,15.30
2018-06-22T20:05:09.248Z,15.30
2018-06-22T20:07:37.566Z,15.20
2018-06-22T20:10:06.561Z,15.20
2018-06-22T20:12:34.810Z,15.20
2018-06-22T20:17:31.108Z,15.10
2018-06-22T20:19:59.391Z,15.30
2018-06-22T20:22:27.669Z,15.20
2018-06-22T20:25:01.335Z,15.20
2018-06-22T20:27:29.641Z,15.30
2018-06-22T20:29:57.911Z,15.20
2018-06-22T20:32:26.228Z,15.20
2018-06-22T20:34:59.928Z,15.10
2018-06-22T20:37:33.563Z,15.20
2018-06-22T20:40:07.203Z,15.00
2018-06-22T20:42:40.970Z,14.90
2018-06-22T20:45:14.752Z,15.10
2018-06-22T20:47:48.380Z,15.20
2018-06-22T20:50:21.966Z,15.20
2018-06-22T20:52:50.352Z,15.20
2018-06-22T20:55:18.659Z,15.20
2018-06-22T20:57:47.001Z,15.00
2018-06-22T21:00:15.336Z,15.10
2018-06-22T21:02:43.645Z,15.00
2018-06-22T21:05:11.921Z,14.80
2018-06-22T21:07:40.180Z,14.70
2018-06-22T21:10:08.528Z,14.60
2018-06-22T21:12:40.407Z,14.50
2018-06-22T21:15:05.981Z,14.70
2018-06-22T21:17:34.314Z,14.70
2018-06-22T21:22:30.858Z,14.90
2018-06-22T21:24:59.149Z,14.90
2018-06-22T21:32:40.057Z,14.80
2018-06-22T21:37:46.943Z,14.80
2018-06-22T21:42:43.226Z,14.90
2018-06-22T21:45:11.514Z,14.70
2018-06-22T21:47:39.790Z,14.60
2018-06-22T21:50:08.049Z,14.60
2018-06-22T21:52:36.364Z,14.70
2018-06-22T21:55:04.748Z,14.60
2018-06-22T21:57:33.028Z,14.70
2018-06-22T22:00:01.369Z,14.70
2018-06-22T22:02:29.684Z,14.70
2018-06-22T22:04:57.975Z,14.50
2018-06-22T22:07:26.299Z,14.40
2018-06-22T22:09:54.634Z,14.40
2018-06-22T22:12:22.961Z,14.50
2018-06-22T22:14:51.288Z,14.40
2018-06-22T22:17:19.553Z,14.40
2018-06-22T22:19:47.828Z,14.30
2018-06-22T22:22:16.143Z,14.30
2018-06-22T22:24:44.403Z,14.20
2018-06-22T22:27:12.693Z,13.90
2018-06-22T22:29:40.974Z,14.00
2018-06-22T22:32:09.288Z,13.90
2018-06-22T22:34:37.553Z,14.00
2018-06-22T22:37:05.846Z,14.00
2018-06-22T22:39:34.125Z,14.10
2018-06-22T22:42:02.463Z,14.20
2018-06-22T22:44:30.727Z,14.10
2018-06-22T22:46:59.104Z,14.10
2018-06-22T22:49:27.403Z,13.80
2018-06-22T22:51:56.223Z,13.90
2018-06-22T22:54:24.496Z,13.90
2018-06-22T22:56:52.824Z,14.00
2018-06-22T22:59:21.281Z,13.90
2018-06-22T23:01:49.698Z,14.00
2018-06-22T23:04:17.993Z,14.00
2018-06-22T23:06:46.244Z,13.90
2018-06-22T23:09:14.566Z,13.70
2018-06-22T23:11:42.859Z,13.60
2018-06-22T23:14:11.183Z,13.60
2018-06-22T23:16:39.436Z,13.70
2018-06-22T23:19:07.780Z,13.90
2018-06-22T23:21:36.152Z,13.90
2018-06-22T23:24:04.506Z,13.80
2018-06-22T23:26:33.071Z,13.90
2018-06-22T23:29:01.485Z,14.00
2018-06-22T23:31:29.799Z,14.00
2018-06-22T23:36:26.047Z,13.80
2018-06-22T23:41:22.306Z,13.80
2018-06-22T23:43:50.636Z,13.70
2018-06-22T23:46:18.928Z,13.70
2018-06-22T23:51:15.192Z,13.40
2018-06-22T23:53:43.506Z,13.20
2018-06-22T23:56:12.535Z,13.40
2018-06-22T23:58:40.967Z,13.50
